Time;durP1;ratioP1;P1;durP2;ratioP2;P2;SDS_P1;SDS_P2;PMS_P1;PMS_P2;Temp;Humidity;BMP_temperature;BMP_pressure;BME280_temperature;BME280_humidity;BME280_pressure;Samples;Min_cycle;Max_cycle;Signal;HPM_P1;HPM_P2
2021/04/08 00:02:03;;;;;;;24.07;4.40;;;;;;;1.55;71.76;100903.16;4998603;28;20291;-88
2021/04/08 00:04:29;;;;;;;13.93;3.58;;;;;;;1.51;71.64;100921.88;4998056;28;20033;-88
2021/04/08 00:06:55;;;;;;;26.10;4.55;;;;;;;1.56;71.67;100931.13;4998753;28;20535;-88
2021/04/08 00:09:21;;;;;;;26.25;3.67;;;;;;;1.52;72.29;100929.66;4997960;28;20525;-88
2021/04/08 00:11:46;;;;;;;22.20;3.88;;;;;;;1.53;71.46;100918.19;4998101;28;20446;-88
2021/04/08 00:14:12;;;;;;;12.90;2.53;;;;;;;1.50;71.69;100922.78;4998047;28;20069;-89
2021/04/08 00:16:38;;;;;;;26.63;4.78;;;;;;;1.57;71.60;100948.63;4997902;28;20029;-88
2021/04/08 00:19:10;;;;;;;24.20;3.25;;;;;;;1.33;72.19;100918.63;4998103;28;20038;-88
2021/04/08 00:21:37;;;;;;;18.13;3.58;;;;;;;1.44;72.02;100926.69;4998261;28;20033;-88
2021/04/08 00:24:03;;;;;;;16.58;2.92;;;;;;;1.35;71.84;100924.63;4997850;28;20030;-87
2021/04/08 00:26:28;;;;;;;23.10;5.15;;;;;;;1.40;71.44;100939.19;4997573;28;20132;-88
2021/04/08 00:28:54;;;;;;;15.65;3.65;;;;;;;1.41;71.15;100927.72;4997544;28;20121;-89
2021/04/08 00:31:20;;;;;;;26.60;2.92;;;;;;;1.44;72.09;100955.63;4998304;28;20034;-88
2021/04/08 00:33:49;;;;;;;23.30;4.10;;;;;;;1.27;71.32;100931.25;4997933;28;20552;-90
2021/04/08 00:36:15;;;;;;;14.13;2.30;;;;;;;1.52;70.43;100958.59;4997214;28;20120;-89
2021/04/08 00:38:40;;;;;;;33.67;3.50;;;;;;;1.32;71.29;100943.25;4996175;28;20130;-89
2021/04/08 00:41:06;;;;;;;18.80;3.00;;;;;;;1.33;71.85;100950.19;4997204;28;20076;-89
2021/04/08 00:43:37;;;;;;;15.00;3.50;;;;;;;1.27;71.99;100949.66;4997514;28;20372;-90
2021/04/08 00:46:03;;;;;;;18.95;3.45;;;;;;;1.41;72.04;100974.25;4997333;28;20037;-89
2021/04/08 00:48:28;;;;;;;21.77;3.83;;;;;;;1.10;72.67;100941.13;4997815;28;20068;-88
2021/04/08 00:50:54;;;;;;;19.48;3.40;;;;;;;1.26;72.73;100974.28;4997713;28;20649;-89
2021/04/08 00:53:36;;;;;;;22.17;4.10;;;;;;;1.03;72.65;100938.91;4997356;28;20038;-88
2021/04/08 00:56:02;;;;;;;20.77;4.10;;;;;;;1.12;72.57;100965.56;4997192;28;20091;-89
2021/04/08 00:58:35;;;;;;;12.98;3.10;;;;;;;1.17;72.84;100972.22;4996860;28;20120;-88
2021/04/08 01:01:04;;;;;;;21.52;2.85;;;;;;;1.01;72.55;100950.47;4997373;28;20446;-89
2021/04/08 01:03:30;;;;;;;19.08;4.10;;;;;;;1.13;73.42;100975.16;4997033;28;20029;-89
2021/04/08 01:05:59;;;;;;;25.60;3.28;;;;;;;0.99;73.74;100973.38;4996498;28;20033;-88
2021/04/08 01:12:46;;;;;;;29.77;3.80;;;;;;;1.04;73.90;101003.69;5015083;28;20069;-86
2021/04/08 01:15:12;;;;;;;17.55;3.33;;;;;;;1.00;73.58;100985.56;4996432;28;20045;-88
2021/04/08 01:17:42;;;;;;;;;;;;;;;1.12;73.98;101016.34;4997016;28;20042;-88
2021/04/08 01:20:16;;;;;;;13.90;2.50;;;;;;;1.17;73.91;101030.09;4996699;28;20008;-87
2021/04/08 01:23:05;;;;;;;15.93;2.80;;;;;;;1.15;74.39;101029.34;4996886;28;20076;-87
2021/04/08 01:26:02;;;;;;;16.88;3.67;;;;;;;0.87;73.75;100988.13;4996484;28;20084;-89
2021/04/08 01:28:47;;;;;;;22.77;3.28;;;;;;;0.98;73.81;101011.09;4996108;28;20046;-89
2021/04/08 01:31:16;;;;;;;21.77;5.03;;;;;;;0.86;74.10;100996.09;4996520;28;20057;-88
2021/04/08 01:33:45;;;;;;;20.98;3.60;;;;;;;0.97;74.34;101006.81;4996586;28;20128;-88
2021/04/08 01:36:15;;;;;;;17.95;3.38;;;;;;;1.02;74.32;101015.25;4996187;28;20034;-89
2021/04/08 01:38:44;;;;;;;11.70;2.80;;;;;;;0.99;73.92;101004.94;4995952;28;20095;-88
2021/04/08 01:41:11;;;;;;;18.00;4.00;;;;;;;1.16;73.73;101031.00;4995899;28;20030;-88
2021/04/08 01:43:55;;;;;;;15.70;3.08;;;;;;;1.22;73.73;101035.91;4996199;28;20115;-89
2021/04/08 01:46:23;;;;;;;18.58;2.95;;;;;;;1.22;74.31;101058.75;4995861;28;20047;-89
2021/04/08 01:48:53;;;;;;;9.40;2.80;;;;;;;1.03;75.07;101049.34;4995737;28;20033;-89
2021/04/08 01:51:26;;;;;;;15.90;3.72;;;;;;;1.11;75.28;101059.38;5007357;28;20489;-89
2021/04/08 01:53:55;;;;;;;23.30;4.40;;;;;;;0.98;75.27;101056.69;4995791;28;20037;-89
2021/04/08 01:56:23;;;;;;;20.85;3.35;;;;;;;1.01;74.98;101045.13;4995698;28;20041;-88
2021/04/08 01:58:52;;;;;;;19.48;4.32;;;;;;;1.09;75.16;101074.41;4995967;28;20388;-89
2021/04/08 02:01:19;;;;;;;24.90;3.00;;;;;;;1.03;75.55;101085.28;4995898;28;20040;-89
2021/04/08 02:03:44;;;;;;;29.13;4.03;;;;;;;0.95;75.92;101072.63;4995712;28;20030;-88
2021/04/08 02:06:19;;;;;;;21.30;3.80;;;;;;;1.06;75.21;101079.88;5011924;28;20121;-89
2021/04/08 02:08:50;;;;;;;17.58;3.08;;;;;;;0.97;75.72;101069.91;4995149;28;20041;-89
2021/04/08 02:11:16;;;;;;;18.52;3.67;;;;;;;0.85;75.71;101060.97;4995652;28;20038;-89
2021/04/08 02:13:49;;;;;;;21.33;4.35;;;;;;;0.96;76.48;101090.09;4995225;28;20092;-89
2021/04/08 02:16:19;;;;;;;21.42;4.20;;;;;;;0.87;76.18;101074.88;4995613;28;20045;-89
2021/04/08 02:18:47;;;;;;;22.30;4.65;;;;;;;0.91;77.09;101093.91;4995423;28;20042;-89
2021/04/08 02:21:14;;;;;;;17.98;4.13;;;;;;;0.86;76.37;101080.22;4995044;28;20044;-89
2021/04/08 02:23:42;;;;;;;32.33;5.78;;;;;;;0.75;76.37;101073.81;4995209;28;20034;-88
2021/04/08 02:26:17;;;;;;;26.80;4.88;;;;;;;0.90;76.08;101089.63;5011665;28;20065;-89
2021/04/08 02:28:44;;;;;;;27.43;3.10;;;;;;;0.94;76.18;101096.38;5011644;28;20045;-89
2021/04/08 02:31:10;;;;;;;26.65;3.63;;;;;;;1.04;75.59;101118.56;4995137;28;20284;-89
2021/04/08 02:33:37;;;;;;;24.05;3.40;;;;;;;1.07;75.88;101117.53;4995411;28;20049;-87
2021/04/08 02:36:03;;;;;;;18.15;3.20;;;;;;;0.98;75.23;101098.75;4995269;28;20042;-88
2021/04/08 02:38:31;;;;;;;25.60;3.58;;;;;;;0.92;75.79;101093.00;4995337;28;20040;-89
2021/04/08 02:41:15;;;;;;;14.85;3.13;;;;;;;0.99;75.26;101115.34;5011696;28;20038;-89
2021/04/08 02:43:40;;;;;;;18.60;4.70;;;;;;;1.04;75.07;101126.44;4995370;28;20121;-88
2021/04/08 02:46:06;;;;;;;24.30;4.90;;;;;;;0.86;75.91;101111.75;4995213;28;20048;-88
2021/04/08 02:48:33;;;;;;;15.97;3.83;;;;;;;0.94;75.65;101133.19;4994533;28;20073;-88
2021/04/08 02:51:02;;;;;;;20.92;3.13;;;;;;;0.96;75.48;101147.06;4995141;28;20033;-89
2021/04/08 02:53:49;;;;;;;29.35;3.78;;;;;;;1.01;74.85;101152.94;4995075;28;20510;-88
2021/04/08 02:56:24;;;;;;;18.50;3.22;;;;;;;0.85;75.22;101134.56;4994923;28;20038;-89
2021/04/08 02:58:57;;;;;;;17.85;2.95;;;;;;;0.68;75.21;101117.19;4994926;28;20756;-89
2021/04/08 03:01:29;;;;;;;13.95;3.47;;;;;;;0.70;75.25;101120.53;4994920;28;20042;-89
2021/04/08 03:03:59;;;;;;;19.80;3.80;;;;;;;0.95;74.68;101163.78;4994683;28;20495;-89
2021/04/08 03:06:26;;;;;;;25.80;3.55;;;;;;;0.78;74.97;101151.66;4994669;28;20037;-89
2021/04/08 03:08:55;;;;;;;21.23;4.05;;;;;;;0.71;74.92;101138.00;4994288;28;20038;-88
2021/04/08 03:11:27;;;;;;;20.42;3.92;;;;;;;0.61;74.52;101142.13;4994662;28;20034;-88
2021/04/08 03:13:59;;;;;;;12.43;4.50;;;;;;;0.51;75.15;101136.53;4994642;28;20030;-89
2021/04/08 03:16:30;;;;;;;15.13;3.40;;;;;;;0.77;74.52;101177.09;4994647;28;20132;-89
2021/04/08 03:19:01;;;;;;;27.25;2.97;;;;;;;0.82;73.26;101161.06;4994434;28;20077;-88
2021/04/08 03:21:32;;;;;;;21.85;3.85;;;;;;;0.67;73.83;101156.69;4995090;28;20030;-89
2021/04/08 03:24:00;;;;;;;18.63;3.28;;;;;;;0.69;73.78;101168.78;4994600;28;20395;-89
2021/04/08 03:26:27;;;;;;;17.13;2.85;;;;;;;0.59;74.08;101172.88;4994534;28;20033;-88
2021/04/08 03:29:03;;;;;;;15.52;2.97;;;;;;;0.53;73.73;101171.44;4994252;28;20113;-89
2021/04/08 03:31:30;;;;;;;19.20;4.20;;;;;;;0.63;73.21;101191.03;4994464;28;20061;-89
2021/04/08 03:33:56;;;;;;;;;;;;;;;0.78;73.25;101202.44;4994538;28;20475;-88
2021/04/08 03:36:22;;;;;;;14.07;2.50;;;;;;;0.70;73.72;101204.63;4994720;28;19917;-89
2021/04/08 03:38:48;;;;;;;19.15;2.72;;;;;;;0.56;73.64;101212.47;4994518;28;20128;-88
2021/04/08 03:41:14;;;;;;;20.95;3.45;;;;;;;0.39;74.09;101200.28;4994412;28;20065;-89
2021/04/08 03:43:41;;;;;;;16.92;2.92;;;;;;;0.30;74.56;101196.38;4994265;28;20038;-89
2021/04/08 03:46:13;;;;;;;20.27;2.95;;;;;;;0.11;75.22;101187.84;4994322;28;20034;-89
2021/04/08 03:48:41;;;;;;;14.10;2.65;;;;;;;0.20;75.04;101192.56;4994455;28;20045;-89
2021/04/08 03:51:08;;;;;;;25.02;3.00;;;;;;;0.14;76.05;101200.78;4994358;28;20046;-89
2021/04/08 03:53:34;;;;;;;;;;;;;;;0.29;76.25;101236.72;4994855;28;20461;-89
2021/04/08 03:56:00;;;;;;;12.43;2.08;;;;;;;0.12;76.84;101221.06;4994370;28;19913;-89
2021/04/08 03:58:26;;;;;;;18.58;4.85;;;;;;;0.22;77.31;101232.75;4994099;28;20479;-89
2021/04/08 04:00:52;;;;;;;22.15;3.58;;;;;;;0.12;77.48;101218.44;4994202;28;20045;-89
2021/04/08 04:03:21;;;;;;;19.88;2.20;;;;;;;0.13;77.82;101231.44;4994317;28;20026;-88
2021/04/08 04:05:51;;;;;;;16.65;3.15;;;;;;;-0.08;77.96;101207.22;4994063;28;20029;-89
2021/04/08 04:08:18;;;;;;;22.35;3.83;;;;;;;0.08;78.28;101227.38;4994306;28;20099;-89
2021/04/08 04:10:44;;;;;;;17.45;3.63;;;;;;;0.00;78.42;101235.69;4994192;28;20061;-89
2021/04/08 04:13:14;;;;;;;13.45;2.05;;;;;;;0.03;78.94;101261.78;4994799;28;20132;-89
2021/04/08 04:15:45;;;;;;;18.23;2.70;;;;;;;-0.17;79.35;101227.84;4997565;28;20061;-89
2021/04/08 04:18:16;;;;;;;11.93;2.40;;;;;;;-0.05;78.72;101243.81;4997883;28;20092;-89
2021/04/08 04:20:43;;;;;;;28.42;3.00;;;;;;;0.00;79.03;101256.69;4997382;28;20030;-89
2021/04/08 04:23:08;;;;;;;;;;;;;;;0.11;79.05;101269.22;4997934;28;20041;-88
2021/04/08 04:25:34;;;;;;;13.18;2.17;;;;;;;0.22;78.05;101266.03;4998096;28;19913;-88
2021/04/08 04:27:59;;;;;;;14.27;2.37;;;;;;;0.30;77.93;101272.53;4997304;28;20041;-88
2021/04/08 04:30:25;;;;;;;10.17;2.00;;;;;;;0.25;77.86;101261.44;4997321;28;20116;-89
2021/04/08 04:32:59;;;;;;;17.95;2.60;;;;;;;0.30;77.48;101275.16;4997642;28;20034;-90
2021/04/08 04:35:33;;;;;;;24.27;4.68;;;;;;;0.27;77.82;101277.97;4997373;28;20034;-90
2021/04/08 04:37:59;;;;;;;18.15;2.75;;;;;;;0.33;77.75;101264.53;4997047;28;20029;-89
2021/04/08 04:40:24;;;;;;;10.97;2.20;;;;;;;0.36;77.45;101289.75;4997075;28;20084;-89
2021/04/08 04:42:50;;;;;;;13.55;2.95;;;;;;;0.40;77.34;101286.91;4997244;28;20176;-89
2021/04/08 04:45:15;;;;;;;19.23;3.33;;;;;;;0.39;77.86;101279.94;4997074;28;20079;-89
2021/04/08 04:47:45;;;;;;;10.77;2.13;;;;;;;0.35;77.99;101288.06;4997159;28;20076;-89
2021/04/08 04:50:12;;;;;;;20.17;2.20;;;;;;;0.33;77.04;101276.81;4996946;28;20034;-89
2021/04/08 04:52:38;;;;;;;39.65;3.35;;;;;;;0.36;77.62;101274.00;4996928;28;20044;-89
2021/04/08 04:55:05;;;;;;;12.60;3.45;;;;;;;0.45;77.39;101298.94;5024517;23;20046;-79
2021/04/08 04:57:31;;;;;;;14.60;3.17;;;;;;;0.44;77.80;101308.56;5033216;28;20041;-80
2021/04/08 04:59:56;;;;;;;15.60;2.13;;;;;;;0.48;77.50;101291.72;5033949;28;20040;-81
2021/04/08 05:02:22;;;;;;;11.10;2.22;;;;;;;0.47;77.44;101312.81;5032828;28;20760;-81
2021/04/08 05:04:47;;;;;;;10.00;2.00;;;;;;;0.40;78.02;101313.16;5032620;28;20362;-80
2021/04/08 05:07:12;;;;;;;8.40;2.27;;;;;;;0.49;77.33;101310.94;5032741;28;20385;-80
2021/04/08 05:09:38;;;;;;;27.27;4.23;;;;;;;0.53;77.49;101320.38;5032644;28;20296;-81
2021/04/08 05:12:03;;;;;;;13.30;2.20;;;;;;;0.54;77.29;101319.41;5033552;28;20044;-82
2021/04/08 05:14:29;;;;;;;14.23;2.13;;;;;;;0.50;77.86;101329.28;5033543;28;20465;-80
2021/04/08 05:16:54;;;;;;;19.83;3.90;;;;;;;0.45;77.92;101335.72;5033595;28;20049;-81
2021/04/08 05:19:20;;;;;;;13.18;3.47;;;;;;;0.55;77.49;101329.03;5015837;28;20415;-79
2021/04/08 05:21:48;;;;;;;19.83;3.20;;;;;;;0.56;77.56;101333.31;5032491;28;20569;-81
2021/04/08 05:24:14;;;;;;;17.42;3.15;;;;;;;0.55;77.66;101337.75;5033235;28;20037;-80
2021/04/08 05:26:39;;;;;;;18.97;2.77;;;;;;;0.60;77.10;101337.50;5032864;28;20087;-81
2021/04/08 05:29:04;;;;;;;16.83;2.03;;;;;;;1.68;79.33;101342.75;5032119;28;20056;-79
2021/04/08 05:31:30;;;;;;;10.13;1.33;;;;;;;2.08;74.26;101349.16;5033134;28;20033;-79
2021/04/08 05:33:55;;;;;;;15.93;4.07;;;;;;;2.07;73.23;101349.22;5031836;28;20084;-79
2021/04/08 05:36:21;;;;;;;8.03;2.03;;;;;;;1.81;72.91;101356.06;5033236;28;20045;-79
2021/04/08 05:38:46;;;;;;;15.02;2.67;;;;;;;1.52;74.18;101348.06;5032595;28;20041;-80
2021/04/08 05:41:11;;;;;;;19.60;4.37;;;;;;;1.26;74.41;101360.97;5015409;28;20048;-80
2021/04/08 05:43:37;;;;;;;17.93;2.60;;;;;;;1.20;74.87;101361.31;5033025;28;20498;-80
2021/04/08 05:46:03;;;;;;;18.35;3.75;;;;;;;1.17;74.79;101361.50;5032937;28;20037;-80
2021/04/08 05:48:28;;;;;;;15.33;2.63;;;;;;;1.15;75.33;101365.16;5031940;28;20462;-80
2021/04/08 05:50:53;;;;;;;13.90;2.57;;;;;;;1.20;74.78;101376.25;5031964;28;20481;-80
2021/04/08 05:53:19;;;;;;;18.10;3.10;;;;;;;1.16;75.45;101367.66;5032792;28;20349;-81
2021/04/08 05:55:44;;;;;;;27.83;4.83;;;;;;;1.17;75.07;101366.75;5032608;28;20033;-80
2021/04/08 05:58:09;;;;;;;26.47;3.93;;;;;;;2.16;72.96;101374.19;5032699;28;20063;-83
2021/04/08 06:00:35;;;;;;;11.23;2.03;;;;;;;3.09;68.04;101373.59;5015310;28;20626;-81
2021/04/08 06:03:00;;;;;;;15.47;3.43;;;;;;;3.26;67.10;101377.78;5032785;28;20044;-80
2021/04/08 06:05:25;;;;;;;14.23;2.93;;;;;;;3.58;65.60;101386.25;5032545;28;20045;-80
2021/04/08 06:07:51;;;;;;;12.97;1.70;;;;;;;3.80;65.06;101382.16;5031333;28;20047;-83
2021/04/08 06:10:16;;;;;;;8.97;2.00;;;;;;;3.72;65.05;101392.38;5032275;28;20393;-79
2021/04/08 06:12:43;;;;;;;21.20;2.33;;;;;;;4.06;63.88;101396.25;5014669;28;20059;-80
2021/04/08 06:15:09;;;;;;;13.45;1.92;;;;;;;4.38;62.90;101395.84;5031249;28;20453;-80
2021/04/08 06:17:35;;;;;;;15.23;2.38;;;;;;;4.18;64.49;101398.03;5032020;28;20113;-80
2021/04/08 06:20:00;;;;;;;16.05;3.20;;;;;;;3.73;65.13;101397.56;5014958;28;20719;-79
2021/04/08 06:22:26;;;;;;;10.03;2.27;;;;;;;4.01;64.25;101409.75;5032206;28;20382;-80
2021/04/08 06:24:51;;;;;;;8.47;2.60;;;;;;;4.34;63.10;101410.22;5031226;28;20056;-80
2021/04/08 06:27:16;;;;;;;13.77;2.87;;;;;;;3.32;66.51;101405.56;5031090;28;20053;-80
2021/04/08 06:29:42;;;;;;;11.33;2.50;;;;;;;4.50;63.86;101415.28;5031937;28;20040;-80
2021/04/08 06:32:07;;;;;;;8.67;2.13;;;;;;;4.97;61.36;101411.09;5032225;28;20465;-81
2021/04/08 06:34:32;;;;;;;13.70;2.37;;;;;;;4.47;63.41;101413.69;5031963;28;20451;-81
2021/04/08 06:36:58;;;;;;;11.33;2.87;;;;;;;4.83;60.91;101402.31;5030202;28;20040;-79
2021/04/08 06:39:23;;;;;;;9.17;2.40;;;;;;;4.97;61.79;101409.28;5031521;28;20037;-79
2021/04/08 06:41:50;;;;;;;15.37;2.20;;;;;;;4.90;61.63;101415.13;5030726;28;20120;-80
2021/04/08 06:44:21;;;;;;;8.32;1.95;;;;;;;5.17;61.88;101422.88;5031759;28;20116;-80
2021/04/08 06:46:50;;;;;;;12.25;2.35;;;;;;;4.68;61.76;101418.44;5031652;28;20529;-79
2021/04/08 06:49:38;;;;;;;9.68;2.08;;;;;;;5.29;61.15;101420.19;5031423;28;20333;-79
2021/04/08 06:52:05;;;;;;;16.05;1.88;;;;;;;4.80;61.71;101425.50;5031529;28;20147;-79
2021/04/08 06:54:31;;;;;;;14.27;3.05;;;;;;;4.31;64.11;101428.91;5014123;28;20034;-81
2021/04/08 06:56:57;;;;;;;;;;;;;;;4.55;63.36;101434.31;5031597;28;20036;-81
2021/04/08 06:59:23;;;;;;;;;;;;;;;4.37;65.00;101441.72;5031187;28;19913;-81
2021/04/08 07:01:49;;;;;;;7.75;2.47;;;;;;;5.08;62.33;101432.34;5031404;28;20014;-81
2021/04/08 07:04:15;;;;;;;12.90;1.95;;;;;;;4.48;63.56;101438.34;5031677;28;20484;-78
2021/04/08 07:06:41;;;;;;;9.73;1.98;;;;;;;4.75;62.15;101447.00;5030304;28;20033;-79
2021/04/08 07:09:09;;;;;;;16.63;2.28;;;;;;;5.19;61.58;101450.91;5030838;28;20045;-78
2021/04/08 07:11:36;;;;;;;16.10;2.47;;;;;;;5.60;59.47;101457.66;5031442;28;20092;-78
2021/04/08 07:14:03;;;;;;;10.95;2.20;;;;;;;5.51;59.85;101461.00;5030920;28;20516;-78
2021/04/08 07:16:30;;;;;;;9.25;2.25;;;;;;;5.03;60.80;101456.50;5030642;28;20124;-78
2021/04/08 07:18:57;;;;;;;20.10;3.13;;;;;;;5.45;60.20;101456.97;5029371;28;20613;-78
2021/04/08 07:21:27;;;;;;;18.77;2.45;;;;;;;5.12;61.56;101462.06;5029584;28;20358;-78
2021/04/08 07:24:25;;;;;;;14.10;3.33;;;;;;;5.68;61.04;101460.59;5030559;28;20032;-78
2021/04/08 07:27:04;;;;;;;17.05;2.42;;;;;;;5.66;59.85;101459.00;5026369;28;20152;-77
2021/04/08 07:29:38;;;;;;;11.55;2.03;;;;;;;5.97;58.89;101467.34;5029059;28;20045;-77
2021/04/08 07:32:11;;;;;;;9.93;2.03;;;;;;;5.89;58.41;101474.03;5030621;28;20037;-77
2021/04/08 07:34:59;;;;;;;10.60;2.17;;;;;;;5.21;60.94;101469.34;5030437;28;20061;-77
2021/04/08 07:37:32;;;;;;;11.68;3.03;;;;;;;5.25;61.22;101469.03;5029238;28;20140;-78
2021/04/08 07:40:13;;;;;;;14.27;2.15;;;;;;;5.17;60.75;101479.31;5012917;28;20043;-78
2021/04/08 07:42:38;;;;;;;8.02;3.35;;;;;;;5.32;59.64;101482.66;5015123;28;20052;-78
2021/04/08 07:45:05;;;;;;;5.17;2.00;;;;;;;5.69;59.86;101475.53;5030546;28;20037;-78
2021/04/08 07:47:36;;;;;;;13.70;2.53;;;;;;;6.02;57.90;101483.78;5029213;28;20056;-78
2021/04/08 07:50:05;;;;;;;12.45;1.90;;;;;;;6.01;57.02;101480.28;5033419;28;20064;-78
2021/04/08 07:52:35;;;;;;;6.65;1.35;;;;;;;6.04;56.84;101481.84;5033268;28;20314;-77
2021/04/08 07:55:05;;;;;;;11.55;2.20;;;;;;;6.02;57.34;101481.97;5033928;28;20033;-77
2021/04/08 07:57:31;;;;;;;10.35;1.77;;;;;;;6.88;55.89;101486.00;5033029;28;20120;-77
2021/04/08 08:00:15;;;;;;;9.38;1.40;;;;;;;7.50;54.13;101481.94;5032385;28;20076;-78
2021/04/08 08:02:40;;;;;;;15.68;1.63;;;;;;;7.10;53.73;101489.63;5033002;28;20033;-78
2021/04/08 08:05:29;;;;;;;10.70;2.20;;;;;;;7.35;52.90;101494.66;5034089;28;20094;-78
2021/04/08 08:08:17;;;;;;;10.73;1.85;;;;;;;7.44;53.64;101493.06;5034074;28;20029;-77
2021/04/08 08:11:00;;;;;;;9.18;2.03;;;;;;;7.36;51.37;101495.50;5034259;28;20524;-77
2021/04/08 08:13:31;;;;;;;11.40;2.25;;;;;;;7.38;51.97;101499.72;5034095;28;20045;-78
2021/04/08 08:15:58;;;;;;;11.85;2.20;;;;;;;6.90;53.41;101504.44;5034184;28;20236;-76
2021/04/08 08:18:29;;;;;;;9.05;1.52;;;;;;;7.06;52.75;101504.94;5032899;28;20025;-77
2021/04/08 08:21:06;;;;;;;13.57;2.17;;;;;;;7.83;50.83;101499.59;5032929;28;20049;-78
2021/04/08 08:23:37;;;;;;;6.57;1.58;;;;;;;7.83;50.68;101506.72;5033095;28;20037;-78
2021/04/08 08:26:25;;;;;;;6.50;1.77;;;;;;;8.20;49.11;101507.19;5033514;28;20041;-78
2021/04/08 08:28:52;;;;;;;5.70;1.17;;;;;;;8.96;46.65;101511.47;5033709;28;20048;-78
2021/04/08 08:31:34;;;;;;;6.45;1.50;;;;;;;9.27;45.97;101507.81;5033775;28;20037;-78
2021/04/08 08:34:02;;;;;;;11.10;2.22;;;;;;;7.80;48.29;101522.94;5032704;28;20419;-78
2021/04/08 08:36:32;;;;;;;7.07;1.60;;;;;;;6.89;48.67;101518.69;5032356;28;20109;-79
2021/04/08 08:39:04;;;;;;;8.25;1.80;;;;;;;6.01;50.66;101506.78;5031839;28;20045;-78
2021/04/08 08:41:30;;;;;;;10.63;1.20;;;;;;;5.59;53.50;101524.00;5032939;28;20103;-78
2021/04/08 08:43:56;;;;;;;9.15;3.53;;;;;;;5.48;54.89;101517.69;5033182;28;20438;-79
2021/04/08 08:46:26;;;;;;;4.93;1.40;;;;;;;5.42;55.11;101515.47;5032685;28;20414;-78
2021/04/08 08:48:52;;;;;;;9.43;1.83;;;;;;;5.34;55.11;101528.44;5032279;28;20045;-76
2021/04/08 08:51:19;;;;;;;9.70;1.88;;;;;;;5.33;55.27;101520.56;5032371;28;20469;-78
2021/04/08 08:53:45;;;;;;;;;;;;;;;5.29;54.85;101525.22;5033839;28;20466;-79
2021/04/08 08:56:12;;;;;;;8.27;2.72;;;;;;;5.45;56.61;101525.81;5015778;28;20425;-77
2021/04/08 08:58:37;;;;;;;14.95;2.35;;;;;;;5.64;54.55;101529.81;5032449;28;20045;-79
2021/04/08 09:01:03;;;;;;;9.73;1.33;;;;;;;5.50;55.50;101526.38;5031322;28;20048;-79
2021/04/08 09:03:28;;;;;;;10.47;2.47;;;;;;;5.71;54.14;101528.41;5033127;28;20112;-79
2021/04/08 09:05:56;;;;;;;10.87;1.67;;;;;;;6.56;54.50;101528.31;5033249;28;20048;-79
2021/04/08 09:08:25;;;;;;;12.07;1.95;;;;;;;7.97;49.62;101522.41;5032810;28;20109;-78
2021/04/08 09:10:51;;;;;;;15.05;2.97;;;;;;;8.08;49.00;101523.31;5032370;28;20107;-78
2021/04/08 09:13:18;;;;;;;13.38;1.38;;;;;;;7.35;51.35;101525.66;5032833;28;20117;-78
2021/04/08 09:15:43;;;;;;;;;;;;;;;7.14;51.76;101530.88;5031903;28;20123;-77
2021/04/08 09:18:09;;;;;;;6.93;1.73;;;;;;;6.22;50.56;101530.84;5031998;28;20011;-79
2021/04/08 09:20:36;;;;;;;5.55;1.13;;;;;;;5.82;52.47;101541.72;5032369;28;20371;-78
2021/04/08 09:23:08;;;;;;;6.00;1.00;;;;;;;5.46;52.25;101554.03;5031627;28;20045;-79
2021/04/08 09:25:39;;;;;;;9.55;1.80;;;;;;;5.03;53.26;101538.53;5031332;28;20045;-79
2021/04/08 09:28:09;;;;;;;4.80;1.25;;;;;;;5.08;54.14;101544.34;5031144;28;20470;-79
2021/04/08 09:30:51;;;;;;;9.27;2.50;;;;;;;5.32;53.66;101548.03;5032192;28;20041;-79
2021/04/08 09:33:17;;;;;;;11.48;1.67;;;;;;;5.14;54.26;101545.72;5033308;28;20424;-78
2021/04/08 09:35:44;;;;;;;4.72;1.30;;;;;;;5.20;54.12;101540.00;5015961;28;20037;-78
2021/04/08 09:38:09;;;;;;;9.18;1.42;;;;;;;5.20;55.03;101549.75;5015187;28;20382;-78
2021/04/08 09:40:36;;;;;;;8.30;1.40;;;;;;;4.90;53.41;101548.28;5032593;28;20038;-79
2021/04/08 09:43:02;;;;;;;15.43;2.35;;;;;;;4.93;54.49;101556.00;5032536;28;20083;-78
2021/04/08 09:45:28;;;;;;;9.32;2.20;;;;;;;5.05;54.64;101571.00;5013352;28;20068;-78
2021/04/08 09:48:13;;;;;;;;;;;;;;;5.19;56.31;101566.56;5013663;28;20037;-79
2021/04/08 09:50:49;;;;;;;4.28;1.60;;;;;;;5.87;55.55;101560.78;5029726;28;19913;-78
2021/04/08 09:53:17;;;;;;;5.80;1.30;;;;;;;5.98;54.63;101561.84;5030416;28;20056;-78
2021/04/08 09:55:55;;;;;;;8.32;1.70;;;;;;;6.16;54.93;101560.50;5029220;28;20369;-78
2021/04/08 09:58:26;;;;;;;6.47;1.90;;;;;;;6.24;54.25;101555.44;5029504;28;20041;-80
2021/04/08 10:00:53;;;;;;;6.32;1.20;;;;;;;5.70;54.39;101566.47;5030936;28;20037;-78
2021/04/08 10:03:29;;;;;;;11.20;2.15;;;;;;;5.68;55.93;101557.78;5030894;28;20030;-78
2021/04/08 10:05:55;;;;;;;8.85;1.73;;;;;;;5.64;55.30;101562.47;5030952;28;20064;-78
2021/04/08 10:08:22;;;;;;;4.97;1.52;;;;;;;5.17;55.37;101558.72;5014121;28;20419;-78
2021/04/08 10:10:50;;;;;;;6.70;0.90;;;;;;;5.03;55.58;101565.00;5031106;28;20381;-78
2021/04/08 10:13:24;;;;;;;10.57;1.40;;;;;;;4.92;57.07;101569.34;5014328;28;20140;-78
2021/04/08 10:15:53;;;;;;;4.75;0.90;;;;;;;4.77;57.84;101565.94;5031572;28;20041;-78
2021/04/08 10:18:23;;;;;;;11.15;2.38;;;;;;;4.75;60.31;101567.84;5031036;28;20040;-78
2021/04/08 10:20:51;;;;;;;5.22;1.45;;;;;;;4.56;60.63;101568.22;5014030;28;20039;-78
2021/04/08 10:23:32;;;;;;;6.38;1.33;;;;;;;4.61;61.95;101568.75;5031494;28;20044;-78
2021/04/08 10:26:03;;;;;;;6.85;1.02;;;;;;;4.83;60.33;101566.38;5031806;28;20063;-78
2021/04/08 10:28:36;;;;;;;5.43;1.58;;;;;;;5.27;60.11;101558.94;5030220;28;20041;-78
2021/04/08 10:31:17;;;;;;;8.57;1.75;;;;;;;5.33;56.27;101563.78;5030620;28;20541;-79
2021/04/08 10:33:43;;;;;;;9.85;1.17;;;;;;;5.86;55.81;101561.75;5031349;28;20045;-64
2021/04/08 10:36:09;;;;;;;8.52;1.73;;;;;;;5.96;54.85;101561.09;5031472;28;20033;-64
2021/04/08 10:38:35;;;;;;;4.43;1.08;;;;;;;6.15;54.28;101569.38;5013703;28;20057;-64
2021/04/08 10:41:01;;;;;;;4.33;1.23;;;;;;;6.93;51.85;101558.16;5030566;28;20041;-64
2021/04/08 10:43:26;;;;;;;7.07;1.00;;;;;;;6.71;53.07;101569.56;5030353;28;20307;-64
2021/04/08 10:45:56;;;;;;;3.40;1.27;;;;;;;6.21;52.23;101560.16;5031035;28;20137;-64
2021/04/08 10:48:23;;;;;;;10.65;1.42;;;;;;;6.25;53.25;101565.09;5029996;28;20057;-64
2021/04/08 10:50:50;;;;;;;2.92;1.15;;;;;;;5.99;54.21;101564.34;5029725;28;20034;-64
2021/04/08 10:53:27;;;;;;;10.07;1.67;;;;;;;5.91;54.79;101574.66;5029766;28;20546;-64
2021/04/08 10:55:54;;;;;;;4.40;1.23;;;;;;;5.89;52.08;101568.63;5030770;28;20029;-64
2021/04/08 10:58:27;;;;;;;3.55;0.77;;;;;;;5.89;53.05;101571.28;5030086;28;20525;-64
2021/04/08 11:00:55;;;;;;;3.78;1.00;;;;;;;5.78;53.06;101573.84;5013822;28;20044;-64
2021/04/08 11:03:21;;;;;;;2.92;1.02;;;;;;;6.22;53.23;101572.44;5030983;28;20033;-64
2021/04/08 11:05:47;;;;;;;;;;;;;;;6.13;51.62;101577.47;5031334;28;20073;-64
2021/04/08 11:08:12;;;;;;;;;;;;;;;6.32;50.81;101561.03;5030253;28;20481;-64
2021/04/08 11:10:39;;;;;;;4.20;1.20;;;;;;;6.36;50.06;101574.06;5029807;28;19920;-64
2021/04/08 11:13:05;;;;;;;2.25;0.85;;;;;;;6.92;48.89;101567.06;5013382;28;20041;-64
2021/04/08 11:15:36;;;;;;;3.05;0.75;;;;;;;7.26;46.15;101568.91;5031218;28;20136;-64
2021/04/08 11:18:13;;;;;;;2.15;1.30;;;;;;;8.05;44.98;101561.66;5030709;28;20037;-64
2021/04/08 11:20:41;;;;;;;2.30;0.82;;;;;;;9.10;41.29;101569.69;5031020;28;20438;-64
2021/04/08 11:23:08;;;;;;;3.15;0.63;;;;;;;8.52;41.04;101558.69;5031792;28;20469;-64
2021/04/08 11:25:34;;;;;;;1.67;1.00;;;;;;;8.21;42.86;101553.25;5017493;28;20045;-64
2021/04/08 11:28:02;;;;;;;3.78;0.50;;;;;;;9.57;40.52;101558.53;5033887;28;20036;-64
2021/04/08 11:30:34;;;;;;;1.58;0.40;;;;;;;8.66;42.31;101555.72;5034941;28;20382;-64
2021/04/08 11:33:00;;;;;;;3.20;1.15;;;;;;;8.24;43.42;101542.34;5017648;28;20280;-64
2021/04/08 11:35:32;;;;;;;2.97;1.15;;;;;;;8.77;43.42;101552.13;5033850;28;20123;-64
2021/04/08 11:38:13;;;;;;;2.45;1.23;;;;;;;9.28;40.82;101546.78;5033531;28;20069;-64
2021/04/08 11:40:40;;;;;;;3.10;0.80;;;;;;;10.65;40.01;101546.94;5017431;28;20033;-64
2021/04/08 11:43:23;;;;;;;1.27;0.50;;;;;;;10.63;37.18;101538.22;5017506;28;20053;-65